Time;durP1;ratioP1;P1;durP2;ratioP2;P2;SDS_P1;SDS_P2;PMS_P1;PMS_P2;Temp;Humidity;BMP_temperature;BMP_pressure;BME280_temperature;BME280_humidity;BME280_pressure;Samples;Min_cycle;Max_cycle;Signal;HPM_P1;HPM_P2
2022/08/11 00:00:13;;;;;;;3.78;3.25;;;;;;;19.73;47.11;98715.22;5110264;28;20127;-87
2022/08/11 00:02:51;;;;;;;3.35;2.95;;;;;;;19.64;47.52;98710.53;5095377;28;20048;-87
2022/08/11 00:05:20;;;;;;;3.10;2.80;;;;;;;19.58;47.21;98719.47;5093211;28;20044;-87
2022/08/11 00:07:54;;;;;;;3.53;3.20;;;;;;;19.42;47.04;98716.56;5103866;28;20486;-87
2022/08/11 00:10:28;;;;;;;3.30;3.00;;;;;;;19.44;48.05;98713.69;5036690;28;20088;-86
2022/08/11 00:13:03;;;;;;;3.72;3.42;;;;;;;19.32;47.49;98705.78;5073417;28;20623;-86
2022/08/11 00:15:44;;;;;;;3.00;2.80;;;;;;;19.42;48.01;98711.22;5110121;28;20040;-86
2022/08/11 00:18:16;;;;;;;3.05;2.75;;;;;;;19.35;47.78;98707.94;5056744;28;20060;-86
2022/08/11 00:20:44;;;;;;;3.10;2.90;;;;;;;19.30;47.79;98705.19;5074561;28;20052;-87
2022/08/11 00:23:15;;;;;;;3.13;2.50;;;;;;;19.40;49.27;98708.03;5073926;28;20484;-87
2022/08/11 00:25:48;;;;;;;3.05;2.85;;;;;;;19.58;49.28;98714.16;5095960;27;20051;-87
2022/08/11 00:28:28;;;;;;;2.72;2.50;;;;;;;19.65;48.35;98720.94;5069861;28;20469;-87
2022/08/11 00:31:01;;;;;;;3.22;2.80;;;;;;;19.60;48.24;98720.84;5055668;28;20049;-87
2022/08/11 00:33:43;;;;;;;3.58;2.83;;;;;;;19.44;47.15;98711.81;5059036;28;20037;-86
2022/08/11 00:36:15;;;;;;;;;;;;;;;19.41;47.84;98720.25;5085040;28;20045;-86
2022/08/11 00:38:50;;;;;;;3.60;3.30;;;;;;;19.31;47.78;98724.59;5053580;28;19925;-86
2022/08/11 00:41:52;;;;;;;3.17;2.90;;;;;;;19.32;48.15;98719.06;5053923;28;20041;-86
2022/08/11 00:44:52;;;;;;;4.25;3.20;;;;;;;19.26;48.06;98714.72;5054252;28;20045;-86
2022/08/11 00:47:32;;;;;;;3.78;3.47;;;;;;;19.18;48.10;98717.75;5074598;28;20079;-86
2022/08/11 00:50:10;;;;;;;3.97;3.58;;;;;;;19.11;48.38;98720.56;5092989;28;20082;-87
2022/08/11 00:52:56;;;;;;;3.20;3.00;;;;;;;19.02;48.95;98710.56;5093449;28;20106;-86
2022/08/11 00:56:06;;;;;;;5.60;3.35;;;;;;;18.86;49.06;98707.63;5083916;28;20498;-86
2022/08/11 00:58:41;;;;;;;3.22;2.97;;;;;;;18.93;49.26;98710.94;5053110;28;20049;-86
2022/08/11 01:01:16;;;;;;;4.05;3.50;;;;;;;18.73;49.42;98707.13;5054210;28;20045;-87
2022/08/11 01:04:19;;;;;;;3.60;3.30;;;;;;;18.66;49.80;98712.53;5053208;28;20044;-87
2022/08/11 01:07:24;;;;;;;3.00;2.80;;;;;;;18.61;50.28;98709.78;5089284;28;20072;-86
2022/08/11 01:10:57;;;;;;;3.30;2.80;;;;;;;18.62;50.68;98706.88;5084579;28;20131;-87
2022/08/11 01:14:20;;;;;;;3.42;3.10;;;;;;;18.66;50.73;98718.66;5085689;28;20103;-87
2022/08/11 01:17:31;;;;;;;5.28;3.55;;;;;;;18.53;50.99;98712.78;5052048;28;20049;-86
2022/08/11 01:20:38;;;;;;;3.70;3.40;;;;;;;18.50;51.14;98707.97;5068759;28;20502;-86
2022/08/11 01:24:09;;;;;;;4.47;3.20;;;;;;;18.32;51.98;98717.72;5087601;28;20048;-87
2022/08/11 01:27:18;;;;;;;3.40;3.10;;;;;;;18.33;51.89;98713.19;5092986;28;20074;-86
2022/08/11 01:30:06;;;;;;;3.38;2.90;;;;;;;18.21;52.16;98715.06;5093043;28;20471;-86
2022/08/11 01:33:25;;;;;;;3.25;3.00;;;;;;;18.14;52.09;98712.53;5092270;28;20392;-86
2022/08/11 01:36:24;;;;;;;4.50;3.80;;;;;;;17.89;52.98;98708.31;5094346;28;20068;-86
2022/08/11 01:39:24;;;;;;;4.97;3.67;;;;;;;17.67;53.48;98715.19;5085876;28;20046;-82
2022/08/11 01:45:54;;;;;;;3.80;3.50;;;;;;;17.52;53.29;98709.53;5068807;28;20044;-83
2022/08/11 01:48:35;;;;;;;3.58;3.28;;;;;;;17.61;53.00;98703.66;5072526;28;20047;-83
2022/08/11 01:51:32;;;;;;;;;;;;;;;17.64;52.98;98705.84;5090822;28;20075;-82
2022/08/11 01:54:30;;;;;;;6.15;3.70;;;;;;;17.50;53.63;98703.66;5096182;28;19991;-82
2022/08/11 01:57:15;;;;;;;3.60;3.30;;;;;;;17.55;53.34;98707.22;5053248;28;20040;-82
2022/08/11 01:59:53;;;;;;;3.92;3.35;;;;;;;17.58;53.71;98705.97;5084992;28;20504;-82
2022/08/11 02:02:46;;;;;;;3.20;2.90;;;;;;;17.67;53.63;98694.78;5088771;28;20049;-82
2022/08/11 02:05:45;;;;;;;3.65;3.35;;;;;;;17.56;53.39;98697.41;5056229;28;20032;-82
2022/08/11 02:09:11;;;;;;;3.30;3.00;;;;;;;17.57;53.53;98704.34;5080053;28;20094;-82
2022/08/11 02:11:39;;;;;;;4.15;3.15;;;;;;;17.54;53.95;98699.50;5071596;28;20459;-82
2022/08/11 02:14:28;;;;;;;2.80;2.60;;;;;;;17.69;53.54;98697.19;5070022;28;20048;-82
2022/08/11 02:17:06;;;;;;;3.70;3.30;;;;;;;17.85;53.64;98696.53;5071118;28;20447;-82
2022/08/11 02:26:14;;;;;;;3.00;2.80;;;;;;;18.04;53.15;98697.19;5070498;28;20135;-81
2022/08/11 02:28:56;;;;;;;2.80;2.60;;;;;;;18.18;53.28;98695.13;5067305;28;20049;-81
2022/08/11 02:34:55;;;;;;;4.53;3.25;;;;;;;18.13;51.66;98697.66;5050518;28;20132;-82
2022/08/11 02:37:32;;;;;;;3.92;3.15;;;;;;;18.07;52.55;98693.28;5068072;28;20052;-82
2022/08/11 02:40:30;;;;;;;3.35;3.15;;;;;;;18.07;54.43;98694.09;5072740;28;20102;-82
2022/08/11 02:43:11;;;;;;;4.15;3.70;;;;;;;18.00;52.26;98693.41;5055755;28;20041;-83
2022/08/11 02:45:53;;;;;;;4.55;3.45;;;;;;;17.82;53.68;98697.00;5080867;28;20040;-83
2022/08/11 02:52:30;;;;;;;3.80;3.50;;;;;;;17.46;53.71;98699.84;5062169;28;20049;-82
2022/08/11 02:55:46;;;;;;;5.07;3.72;;;;;;;17.31;53.98;98698.44;5061814;28;20075;-83
2022/08/11 02:59:48;;;;;;;3.80;3.50;;;;;;;17.21;53.93;98697.38;5095292;28;20040;-82
2022/08/11 03:01:51;;;;;;;3.85;3.50;;;;;;;17.28;54.33;98701.56;5060909;28;20035;-82
2022/08/11 03:04:56;;;;;;;3.55;3.28;;;;;;;17.38;53.33;98704.44;5063973;28;20049;-82
2022/08/11 03:07:39;;;;;;;3.10;2.90;;;;;;;17.26;54.47;98689.53;5068570;28;20041;-83
2022/08/11 03:10:24;;;;;;;4.07;3.70;;;;;;;17.33;53.80;98698.19;5082084;28;20037;-83
2022/08/11 03:16:44;;;;;;;4.07;3.70;;;;;;;17.28;54.25;98704.22;5095322;28;20149;-83
2022/08/11 03:19:58;;;;;;;3.70;3.40;;;;;;;17.25;54.70;98704.66;5060829;28;20044;-83
2022/08/11 03:22:50;;;;;;;4.47;3.60;;;;;;;17.25;54.01;98712.59;5054656;28;20045;-82
2022/08/11 03:25:57;;;;;;;3.95;3.65;;;;;;;17.15;54.25;98711.53;5055028;28;20041;-83
2022/08/11 03:29:04;;;;;;;4.85;3.45;;;;;;;17.12;54.87;98702.19;5074263;28;20097;-82
2022/08/11 03:31:45;;;;;;;5.00;3.75;;;;;;;16.87;54.97;98693.63;5075626;28;20064;-82
2022/08/11 03:34:24;;;;;;;4.10;3.63;;;;;;;16.79;55.76;98706.16;5070900;28;20077;-83
2022/08/11 03:37:50;;;;;;;4.22;3.85;;;;;;;16.76;56.11;98703.94;5063035;28;20052;-83
2022/08/11 03:44:45;;;;;;;4.20;3.80;;;;;;;16.67;56.26;98707.88;5053705;28;20075;-83
2022/08/11 03:47:46;;;;;;;4.40;4.00;;;;;;;16.55;56.61;98701.72;5089248;28;20069;-83
2022/08/11 03:50:46;;;;;;;4.13;3.83;;;;;;;16.46;56.53;98703.06;5059068;28;20091;-83
2022/08/11 03:53:49;;;;;;;4.35;3.92;;;;;;;16.38;57.23;98696.25;5052759;28;20053;-83
2022/08/11 03:56:48;;;;;;;4.32;3.90;;;;;;;16.43;56.54;98698.22;5068943;28;20075;-83
2022/08/11 04:00:01;;;;;;;4.55;4.10;;;;;;;16.45;57.31;98693.53;5081599;28;20056;-83
2022/08/11 04:03:26;;;;;;;6.00;4.15;;;;;;;16.45;57.08;98691.69;5053559;28;20412;-83
2022/08/11 04:07:08;;;;;;;3.90;3.60;;;;;;;16.46;57.52;98687.19;5056712;28;20052;-84
2022/08/11 04:09:51;;;;;;;4.30;3.83;;;;;;;16.41;57.11;98693.16;5070096;28;20039;-82
2022/08/11 04:13:12;;;;;;;4.22;3.92;;;;;;;16.40;57.29;98694.19;5053960;28;20049;-83
2022/08/11 04:16:01;;;;;;;4.95;4.03;;;;;;;16.35;57.06;98695.88;5052888;28;20045;-84
2022/08/11 04:19:13;;;;;;;3.90;3.45;;;;;;;16.38;56.97;98700.75;5068481;28;20305;-83
2022/08/11 04:21:50;;;;;;;4.13;3.78;;;;;;;16.38;57.23;98701.53;5070327;28;20084;-84
2022/08/11 04:24:31;;;;;;;3.95;3.50;;;;;;;16.39;57.25;98697.88;5108769;28;20067;-84
2022/08/11 04:27:49;;;;;;;4.55;3.90;;;;;;;16.33;57.42;98701.41;5092371;28;20047;-83
2022/08/11 04:30:50;;;;;;;3.20;3.00;;;;;;;16.36;57.49;98708.88;5080123;28;20041;-84
2022/08/11 04:33:35;;;;;;;4.93;3.50;;;;;;;16.30;57.56;98704.47;5061542;28;20063;-84
2022/08/11 04:40:34;;;;;;;3.70;3.40;;;;;;;16.31;57.72;98706.91;5052353;28;20040;-83
2022/08/11 04:43:44;;;;;;;4.07;3.40;;;;;;;16.39;58.60;98705.81;5061947;28;20040;-82
2022/08/11 05:01:39;;;;;;;4.05;3.65;;;;;;;16.44;58.61;98710.44;5076092;28;20128;-83
2022/08/11 05:05:29;;;;;;;3.70;3.40;;;;;;;16.44;57.90;98726.31;5066052;28;20055;-84
2022/08/11 05:07:29;;;;;;;3.55;3.22;;;;;;;16.51;58.26;98724.41;5088526;28;20075;-83
2022/08/11 05:10:22;;;;;;;4.20;3.80;;;;;;;16.50;57.20;98726.25;5069934;28;20489;-84
2022/08/11 05:27:09;;;;;;;4.00;3.70;;;;;;;16.54;57.95;98729.22;5090962;28;20047;-84
2022/08/11 05:36:46;;;;;;;5.90;4.40;;;;;;;16.68;59.53;98741.31;5070097;28;20044;-84
2022/08/11 05:57:01;;;;;;;4.57;3.35;;;;;;;17.60;57.46;98751.63;5064392;28;20044;-84
2022/08/11 05:59:31;;;;;;;4.28;3.00;;;;;;;17.82;57.17;98750.06;5091091;28;20036;-82
2022/08/11 06:02:04;;;;;;;4.72;3.53;;;;;;;17.97;56.60;98756.75;5125199;28;20048;-83
2022/08/11 06:04:33;;;;;;;5.25;4.00;;;;;;;18.02;56.57;98743.59;5091206;28;20456;-83
2022/08/11 06:07:08;;;;;;;3.88;3.58;;;;;;;18.31;56.71;98761.25;5072368;28;20052;-84
2022/08/11 06:09:47;;;;;;;4.20;3.80;;;;;;;18.43;55.35;98750.59;5074201;28;20040;-85
2022/08/11 06:12:34;;;;;;;3.55;3.25;;;;;;;18.64;55.73;98741.19;5091784;28;20089;-82
2022/08/11 06:15:05;;;;;;;3.60;3.30;;;;;;;18.77;56.32;98745.44;5093111;28;20093;-83
2022/08/11 06:17:45;;;;;;;3.80;3.50;;;;;;;18.90;54.86;98745.97;5094231;28;20040;-83
2022/08/11 06:20:15;;;;;;;3.63;2.78;;;;;;;19.18;55.25;98747.00;5071382;28;20431;-83
2022/08/11 06:22:47;;;;;;;3.17;2.80;;;;;;;19.38;54.48;98749.22;5055523;28;20049;-83
2022/08/11 06:25:20;;;;;;;3.85;3.35;;;;;;;19.51;54.69;98747.03;5055402;28;20047;-83
2022/08/11 06:27:55;;;;;;;3.40;2.92;;;;;;;19.68;53.45;98733.78;5055669;28;20049;-86
2022/08/11 06:30:45;;;;;;;2.92;2.60;;;;;;;19.98;53.44;98741.41;5073427;28;20123;-83
2022/08/11 06:33:28;;;;;;;4.32;2.55;;;;;;;20.25;51.16;98740.69;5063445;28;20040;-83
2022/08/11 06:36:26;;;;;;;2.90;2.70;;;;;;;20.58;52.38;98740.63;5091075;28;20040;-83
2022/08/11 06:39:42;;;;;;;2.63;2.42;;;;;;;20.82;50.88;98730.50;5088720;28;20545;-86
2022/08/11 06:42:43;;;;;;;2.97;2.75;;;;;;;21.10;49.83;98731.28;5081781;28;20124;-82
2022/08/11 06:45:39;;;;;;;2.53;2.35;;;;;;;21.40;47.67;98733.44;5082269;28;20066;-82
2022/08/11 06:48:17;;;;;;;2.30;2.10;;;;;;;21.56;48.28;98732.53;5095260;28;20040;-83
2022/08/11 06:51:13;;;;;;;2.90;2.60;;;;;;;21.81;46.51;98741.78;5079604;28;20049;-83
2022/08/11 06:53:57;;;;;;;2.30;2.20;;;;;;;22.13;46.71;98750.56;5089511;28;20063;-83
2022/08/11 07:02:48;;;;;;;3.55;2.47;;;;;;;22.70;44.83;98728.34;5055166;28;20041;-82
2022/08/11 07:05:49;;;;;;;2.47;2.28;;;;;;;23.04;45.68;98738.63;5062568;28;20090;-83
2022/08/11 07:28:54;;;;;;;2.83;2.63;;;;;;;23.53;40.80;98730.09;5089751;28;20044;-82
2022/08/11 07:29:15;;;;;;;3.08;2.42;;;;;;;24.08;38.63;98725.75;5070214;28;20621;-83
2022/08/11 07:31:52;;;;;;;2.83;2.35;;;;;;;24.27;39.68;98724.09;5074405;28;20076;-85
2022/08/11 07:34:31;;;;;;;2.70;2.20;;;;;;;24.45;40.44;98729.97;5068056;28;20044;-85
2022/08/11 07:37:06;;;;;;;3.10;2.70;;;;;;;24.47;37.78;98719.75;5072450;28;20036;-85
2022/08/11 07:39:43;;;;;;;3.50;2.42;;;;;;;24.60;37.95;98715.69;5073803;28;20044;-82
2022/08/11 07:42:13;;;;;;;3.38;2.83;;;;;;;24.57;38.11;98719.72;5086694;28;20498;-83
2022/08/11 07:53:03;;;;;;;3.05;2.40;;;;;;;25.13;37.69;98719.44;5069137;28;20099;-84
2022/08/11 07:55:31;;;;;;;2.83;2.63;;;;;;;25.16;37.11;98718.88;5075868;28;20049;-83
2022/08/11 08:18:17;;;;;;;2.50;2.30;;;;;;;25.71;34.32;98703.34;5068214;28;20050;-84
2022/08/11 08:21:10;;;;;;;2.65;2.45;;;;;;;25.84;34.07;98708.09;5073376;28;20388;-86
2022/08/11 08:23:41;;;;;;;2.53;2.33;;;;;;;25.97;34.08;98705.81;5072140;28;20048;-85
2022/08/11 08:31:52;;;;;;;2.65;2.45;;;;;;;26.19;33.23;98698.03;5085342;28;20110;-85
2022/08/11 08:34:20;;;;;;;2.97;2.58;;;;;;;26.13;33.05;98710.72;5092490;28;20079;-86
2022/08/11 08:36:50;;;;;;;2.40;2.20;;;;;;;26.28;31.76;98707.09;5064983;28;20041;-86
2022/08/11 08:39:23;;;;;;;2.40;2.30;;;;;;;26.19;32.36;98691.88;5070154;28;20048;-86
2022/08/11 08:41:56;;;;;;;2.67;2.45;;;;;;;26.38;32.06;98706.13;5069654;28;20071;-87
2022/08/11 08:44:25;;;;;;;2.50;2.30;;;;;;;26.44;31.65;98698.84;5072897;28;20037;-84
2022/08/11 08:47:17;;;;;;;2.78;2.42;;;;;;;26.50;31.29;98697.69;5053287;28;20076;-85
2022/08/11 08:50:21;;;;;;;2.72;2.47;;;;;;;26.61;31.66;98699.16;5089492;28;20052;-86
2022/08/11 08:53:05;;;;;;;2.08;1.98;;;;;;;26.77;31.59;98708.63;5085286;28;20093;-85
2022/08/11 08:55:33;;;;;;;2.83;2.10;;;;;;;26.73;31.95;98707.59;5070998;28;20036;-85
2022/08/11 08:58:01;;;;;;;2.50;2.30;;;;;;;26.68;31.15;98695.00;5068388;28;20036;-86
2022/08/11 09:00:43;;;;;;;2.40;2.20;;;;;;;26.83;32.23;98706.66;5063147;28;20068;-87
2022/08/11 09:03:12;;;;;;;4.93;2.55;;;;;;;26.95;30.83;98702.44;5069375;28;20094;-87
2022/08/11 09:05:59;;;;;;;3.92;2.55;;;;;;;27.02;31.21;98695.88;5061325;28;20048;-86
2022/08/11 09:08:31;;;;;;;4.57;2.40;;;;;;;27.03;31.01;98687.50;5064942;28;20044;-85
2022/08/11 09:13:47;;;;;;;2.35;2.15;;;;;;;27.15;30.65;98692.47;5074571;28;20074;-85
2022/08/11 09:16:33;;;;;;;2.35;2.15;;;;;;;27.22;31.49;98695.59;5067973;28;20041;-84
2022/08/11 09:19:01;;;;;;;4.03;2.30;;;;;;;27.25;29.78;98688.84;5065623;28;20086;-83
2022/08/11 09:21:30;;;;;;;3.58;2.30;;;;;;;27.34;31.22;98687.06;5090008;28;20044;-82
2022/08/11 09:27:06;;;;;;;3.13;2.28;;;;;;;27.44;30.42;98685.00;5075425;28;20044;-84
2022/08/11 09:29:36;;;;;;;2.33;2.13;;;;;;;27.48;30.15;98704.06;5071118;28;20044;-86
2022/08/11 09:32:04;;;;;;;2.67;2.40;;;;;;;27.36;29.69;98680.28;5069007;28;20457;-84
2022/08/11 09:34:36;;;;;;;2.08;1.98;;;;;;;27.46;29.65;98685.50;5081891;28;20098;-82
2022/08/11 09:40:30;;;;;;;2.47;1.95;;;;;;;27.50;28.22;98677.63;5057559;28;20403;-86
2022/08/11 09:45:51;;;;;;;2.58;2.38;;;;;;;27.53;27.95;98668.97;5053917;28;20041;-84
2022/08/11 09:48:21;;;;;;;2.13;1.90;;;;;;;27.73;29.13;98678.59;5055927;28;20079;-84
2022/08/11 09:50:52;;;;;;;2.67;2.13;;;;;;;27.76;28.02;98667.22;5071713;28;20039;-84
2022/08/11 09:53:22;;;;;;;2.78;2.20;;;;;;;27.87;28.20;98665.91;5062971;28;20135;-84
2022/08/11 09:59:04;;;;;;;2.17;2.03;;;;;;;28.05;27.81;98660.72;5075925;28;20067;-85
2022/08/11 10:01:46;;;;;;;2.00;1.85;;;;;;;28.18;28.32;98657.22;5058060;28;20549;-85
2022/08/11 10:04:24;;;;;;;2.63;2.22;;;;;;;28.16;27.66;98651.34;5051116;28;20056;-84
2022/08/11 10:07:09;;;;;;;4.00;2.20;;;;;;;28.29;28.42;98645.13;5075770;28;20072;-86
2022/08/11 10:10:00;;;;;;;3.13;2.22;;;;;;;28.27;28.24;98647.34;5064651;28;20040;-84
2022/08/11 10:12:32;;;;;;;;;;;;;;;28.25;28.55;98649.56;5067920;28;20066;-84
2022/08/11 10:20:49;;;;;;;2.00;1.90;;;;;;;28.48;29.05;98642.31;5050099;28;20040;-84
2022/08/11 10:35:01;;;;;;;2.63;2.00;;;;;;;28.35;27.92;98635.84;5091768;28;20052;-87
2022/08/11 10:37:35;;;;;;;2.08;1.90;;;;;;;28.39;29.22;98634.16;5075527;28;20041;-85
2022/08/11 10:40:31;;;;;;;3.40;2.28;;;;;;;28.45;28.61;98640.25;5051523;28;20171;-87
2022/08/11 10:43:09;;;;;;;2.53;2.33;;;;;;;28.26;27.94;98618.78;5050886;28;20053;-87
2022/08/11 10:48:29;;;;;;;1.85;1.75;;;;;;;28.59;28.90;98615.91;5053135;28;20075;-83
2022/08/11 10:51:13;;;;;;;2.17;2.00;;;;;;;28.68;27.27;98614.88;5069901;28;20488;-86
2022/08/11 10:59:23;;;;;;;;;;;;;;;28.92;27.19;98609.22;5051692;28;20041;-83
2022/08/11 11:01:52;;;;;;;2.20;2.00;;;;;;;28.78;26.58;98609.22;5052772;28;19920;-85
2022/08/11 11:04:38;;;;;;;2.00;1.83;;;;;;;28.77;26.99;98602.25;5069952;28;20041;-83
2022/08/11 11:07:19;;;;;;;2.95;1.75;;;;;;;28.94;27.21;98609.69;5084061;28;20499;-87
2022/08/11 11:09:53;;;;;;;2.20;1.85;;;;;;;28.83;25.30;98594.81;5094551;28;20079;-84
2022/08/11 11:18:23;;;;;;;4.22;2.03;;;;;;;28.96;25.63;98587.78;5057319;28;20045;-84
2022/08/11 11:20:57;;;;;;;1.85;1.75;;;;;;;29.04;24.43;98589.75;5062107;28;20055;-84
2022/08/11 11:23:36;;;;;;;1.70;1.60;;;;;;;29.12;25.14;98588.22;5056899;28;20408;-83
2022/08/11 11:26:05;;;;;;;1.90;1.80;;;;;;;29.23;25.62;98592.25;5058347;28;20076;-85
2022/08/11 11:29:19;;;;;;;3.25;2.10;;;;;;;29.27;25.16;98583.22;5095748;28;20055;-83
2022/08/11 11:32:40;;;;;;;2.10;1.90;;;;;;;29.26;26.12;98580.81;5065401;28;20095;-83
2022/08/11 11:35:37;;;;;;;1.98;1.80;;;;;;;29.37;24.94;98574.03;5058951;28;20044;-84
2022/08/11 11:38:08;;;;;;;3.78;1.80;;;;;;;29.18;23.54;98563.47;5059623;28;20119;-82
2022/08/11 11:40:41;;;;;;;2.58;1.70;;;;;;;29.21;24.51;98567.44;5075637;28;20052;-85
2022/08/11 11:43:09;;;;;;;2.38;2.00;;;;;;;29.30;25.07;98560.19;5069318;28;20419;-85
2022/08/11 11:45:36;;;;;;;2.20;1.60;;;;;;;29.37;23.96;98559.72;5057355;28;20124;-87
2022/08/11 11:48:05;;;;;;;1.75;1.65;;;;;;;29.42;24.73;98567.69;5079990;28;20048;-84
2022/08/11 11:50:37;;;;;;;2.08;1.80;;;;;;;29.33;24.11;98548.78;5094439;28;20048;-83
2022/08/11 11:53:11;;;;;;;3.58;1.85;;;;;;;29.32;23.93;98557.97;5088368;28;20110;-85
2022/08/11 11:55:47;;;;;;;3.25;2.00;;;;;;;29.38;23.01;98551.31;5081370;28;20035;-82
2022/08/11 12:01:15;;;;;;;1.70;1.60;;;;;;;29.61;24.28;98559.38;5080693;28;20048;-84
2022/08/11 12:03:46;;;;;;;2.47;1.40;;;;;;;29.85;23.15;98549.72;5073495;28;20039;-82
2022/08/11 12:06:13;;;;;;;;;;;;;;;29.82;22.39;98546.88;5085478;28;20044;-87
2022/08/11 12:08:42;;;;;;;2.40;1.80;;;;;;;29.72;22.39;98550.66;5081770;28;19928;-84
2022/08/11 12:14:04;;;;;;;2.17;1.98;;;;;;;29.69;23.15;98545.06;5086531;28;20086;-85
2022/08/11 12:16:40;;;;;;;2.10;1.90;;;;;;;29.53;23.14;98537.41;5083863;28;20085;-84
2022/08/11 12:19:14;;;;;;;2.22;1.90;;;;;;;29.59;22.86;98540.78;5065921;28;20048;-84
2022/08/11 12:27:19;;;;;;;2.10;1.80;;;;;;;29.56;21.67;98514.38;5091227;28;20044;-82
2022/08/11 12:29:56;;;;;;;1.75;1.65;;;;;;;29.89;23.04;98528.28;5079456;28;20052;-83
2022/08/11 12:32:29;;;;;;;1.67;1.58;;;;;;;29.85;21.95;98522.69;5068748;28;20072;-87
2022/08/11 12:34:57;;;;;;;3.13;1.77;;;;;;;29.82;22.11;98522.56;5074760;28;20040;-86
2022/08/11 12:37:45;;;;;;;1.80;1.65;;;;;;;29.90;21.60;98527.16;5060940;28;20525;-86
2022/08/11 12:46:31;;;;;;;2.35;1.60;;;;;;;29.86;23.76;98507.28;5072246;28;20040;-85
2022/08/11 12:52:01;;;;;;;1.70;1.60;;;;;;;30.18;22.94;98500.66;5083863;28;20040;-85
2022/08/11 12:54:57;;;;;;;1.75;1.50;;;;;;;30.34;22.84;98492.84;5068850;28;20058;-87
2022/08/11 13:06:07;;;;;;;3.28;1.85;;;;;;;30.09;20.49;98494.41;5084207;28;20047;-87
2022/08/11 13:08:38;;;;;;;1.60;1.50;;;;;;;30.32;23.42;98497.78;5080534;28;20578;-85
2022/08/11 13:14:15;;;;;;;2.15;1.33;;;;;;;30.52;24.88;98478.16;5071040;28;20044;-85
2022/08/11 13:19:31;;;;;;;1.50;1.40;;;;;;;31.47;21.48;98479.00;5058512;28;20048;-87
2022/08/11 13:21:59;;;;;;;1.25;1.20;;;;;;;31.84;21.28;98472.72;5077274;28;20040;-85
2022/08/11 13:24:27;;;;;;;2.00;1.90;;;;;;;32.36;18.83;98468.81;5079749;28;20052;-86
2022/08/11 13:26:56;;;;;;;1.60;1.50;;;;;;;33.70;20.34;98482.56;5068012;28;20086;-88
2022/08/11 13:29:26;;;;;;;2.30;1.70;;;;;;;35.22;16.13;98473.53;5085745;28;20096;-84
2022/08/11 13:31:58;;;;;;;1.55;1.45;;;;;;;36.14;17.12;98463.09;5092415;28;20052;-87
2022/08/11 13:34:29;;;;;;;1.38;1.27;;;;;;;36.68;15.37;98465.69;5076687;28;20037;-87
2022/08/11 13:37:01;;;;;;;1.40;1.30;;;;;;;38.07;16.90;98471.72;5066630;28;20051;-86
2022/08/11 13:39:36;;;;;;;1.40;1.30;;;;;;;38.01;15.58;98463.81;5054337;28;20044;-82
2022/08/11 13:42:04;;;;;;;1.48;1.10;;;;;;;38.95;16.42;98463.66;5064444;28;20150;-88
2022/08/11 13:44:38;;;;;;;2.22;1.27;;;;;;;39.11;14.21;98455.19;5068496;28;20064;-85
2022/08/11 13:47:08;;;;;;;1.63;1.42;;;;;;;39.17;13.89;98447.41;5069338;28;20099;-85
2022/08/11 13:49:38;;;;;;;1.30;1.20;;;;;;;38.60;14.73;98450.41;5061205;28;20087;-88
2022/08/11 13:52:12;;;;;;;2.38;1.35;;;;;;;38.32;15.23;98450.09;5087896;28;20557;-86
2022/08/11 13:54:41;;;;;;;1.40;1.30;;;;;;;37.38;14.94;98458.28;5089552;28;20503;-85
2022/08/11 13:57:14;;;;;;;1.42;1.33;;;;;;;36.45;15.02;98441.06;5084626;28;20032;-85
2022/08/11 14:00:08;;;;;;;1.70;1.30;;;;;;;36.96;17.66;98440.03;5070794;28;20706;-84
2022/08/11 14:02:51;;;;;;;1.40;1.30;;;;;;;37.53;16.41;98442.84;5064098;28;20061;-86
2022/08/11 14:05:32;;;;;;;1.55;1.42;;;;;;;37.86;14.66;98451.13;5057977;28;20075;-85
2022/08/11 14:08:08;;;;;;;1.23;1.20;;;;;;;37.90;15.33;98438.25;5066726;28;20066;-87
2022/08/11 14:14:17;;;;;;;1.40;1.30;;;;;;;38.18;15.34;98428.81;5079646;28;20040;-85
2022/08/11 14:16:50;;;;;;;1.50;1.23;;;;;;;37.65;14.49;98415.25;5092200;28;20036;-85
2022/08/11 14:19:22;;;;;;;1.35;1.25;;;;;;;37.10;14.58;98409.38;5065834;28;20090;-86
2022/08/11 14:22:07;;;;;;;2.33;1.52;;;;;;;36.81;15.25;98408.13;5069930;28;20040;-85
2022/08/11 14:24:48;;;;;;;1.92;1.50;;;;;;;36.16;16.41;98411.63;5061298;28;20040;-84
2022/08/11 14:27:17;;;;;;;1.83;1.70;;;;;;;35.61;18.10;98410.91;5074981;28;20431;-84
2022/08/11 14:30:53;;;;;;;1.70;1.60;;;;;;;35.00;17.92;98406.00;5051501;28;20095;-85
2022/08/11 14:32:55;;;;;;;1.60;1.50;;;;;;;34.56;18.35;98403.38;5074813;28;20143;-82
2022/08/11 14:35:27;;;;;;;1.60;1.40;;;;;;;34.29;17.40;98400.28;5059377;28;20476;-85
2022/08/11 14:37:58;;;;;;;1.55;1.45;;;;;;;34.26;17.92;98409.19;5080745;28;20487;-86
2022/08/11 14:49:04;;;;;;;1.40;1.30;;;;;;;35.12;18.23;98403.19;5063176;28;20114;-85
2022/08/11 14:51:33;;;;;;;1.60;1.50;;;;;;;34.35;17.59;98406.28;5072378;28;20048;-85
2022/08/11 14:56:45;;;;;;;2.30;1.75;;;;;;;33.28;20.06;98387.66;5061491;28;20049;-84
2022/08/11 14:59:13;;;;;;;2.78;1.77;;;;;;;33.43;20.46;98391.66;5070267;28;20076;-87
2022/08/11 15:04:26;;;;;;;2.85;1.60;;;;;;;33.72;20.56;98393.28;5071494;28;20044;-87
2022/08/11 15:07:04;;;;;;;1.70;1.60;;;;;;;33.43;19.53;98379.97;5085518;28;20044;-84
2022/08/11 15:09:44;;;;;;;1.50;1.40;;;;;;;33.53;19.10;98384.97;5091373;28;20048;-89
2022/08/11 15:12:33;;;;;;;1.73;1.63;;;;;;;33.94;19.25;98375.63;5089589;28;20423;-83
2022/08/11 15:17:52;;;;;;;2.03;1.45;;;;;;;33.35;19.56;98381.69;5057454;28;20107;-84
2022/08/11 15:26:15;;;;;;;1.95;1.60;;;;;;;32.40;20.27;98369.31;5074008;28;20427;-86
2022/08/11 15:37:26;;;;;;;2.05;1.70;;;;;;;31.10;22.37;98354.84;5070285;28;20036;-84
2022/08/11 15:46:13;;;;;;;1.80;1.70;;;;;;;30.85;23.13;98353.88;5073504;28;20097;-82
2022/08/11 15:48:54;;;;;;;1.98;1.88;;;;;;;30.68;22.45;98353.97;5072931;28;20086;-86
2022/08/11 15:51:48;;;;;;;2.25;2.00;;;;;;;30.61;23.27;98359.84;5062598;28;20484;-82
2022/08/11 15:54:22;;;;;;;1.90;1.80;;;;;;;30.52;21.45;98353.66;5061799;28;20052;-86
2022/08/11 15:56:53;;;;;;;1.60;1.50;;;;;;;30.42;22.65;98345.13;5069696;28;20079;-85
2022/08/11 16:05:12;;;;;;;1.48;1.38;;;;;;;30.51;22.46;98349.38;5087365;28;20074;-82
2022/08/11 16:07:47;;;;;;;1.80;1.70;;;;;;;30.49;23.14;98350.84;5108617;28;20040;-83
2022/08/11 16:10:22;;;;;;;2.38;1.88;;;;;;;30.51;23.27;98349.38;5092267;28;20119;-83
2022/08/11 16:16:13;;;;;;;1.48;1.38;;;;;;;30.51;25.49;98343.97;5072072;28;20045;-83
2022/08/11 16:16:14;;;;;;;1.90;1.40;;;;;;;30.58;25.75;98346.97;5078959;28;20512;-83
2022/08/11 16:18:55;;;;;;;3.17;1.80;;;;;;;30.52;23.14;98340.13;5073701;28;20068;-82
2022/08/11 16:21:39;;;;;;;2.03;1.50;;;;;;;30.67;26.20;98330.69;5072678;28;20050;-83
2022/08/11 16:24:11;;;;;;;2.00;1.80;;;;;;;30.76;23.32;98330.69;5072914;28;20093;-82
2022/08/11 16:27:01;;;;;;;2.08;1.70;;;;;;;30.81;23.44;98327.78;5068849;28;20071;-83
2022/08/11 16:29:46;;;;;;;1.83;1.73;;;;;;;31.09;22.15;98337.03;5038780;28;20049;-86
2022/08/11 16:32:20;;;;;;;2.08;1.60;;;;;;;31.41;25.41;98321.22;5079371;28;20049;-82
2022/08/11 16:40:32;;;;;;;2.05;1.90;;;;;;;33.66;19.69;98325.88;5051250;28;20052;-86
2022/08/11 16:48:42;;;;;;;1.45;1.35;;;;;;;35.49;21.36;98318.31;5060751;28;20033;-85
2022/08/11 16:51:12;;;;;;;1.45;1.30;;;;;;;34.97;17.99;98311.34;5064028;28;20395;-86
2022/08/11 16:53:43;;;;;;;1.83;1.73;;;;;;;34.56;18.67;98305.31;5077989;28;20131;-84
2022/08/11 16:56:51;;;;;;;1.73;1.63;;;;;;;33.89;18.18;98313.31;5073643;28;20055;-84
2022/08/11 16:59:32;;;;;;;1.60;1.50;;;;;;;33.72;22.26;98322.56;5077722;28;20040;-87
2022/08/11 17:02:07;;;;;;;1.80;1.70;;;;;;;33.62;21.47;98312.16;5053033;28;20044;-85
2022/08/11 17:13:43;;;;;;;1.73;1.63;;;;;;;34.49;21.23;98321.50;5058986;28;20527;-85
2022/08/11 17:16:14;;;;;;;1.30;1.20;;;;;;;34.57;19.61;98328.69;5086851;28;20110;-86
2022/08/11 17:18:50;;;;;;;1.67;1.58;;;;;;;34.30;21.57;98327.59;5058016;28;20096;-84
2022/08/11 17:21:26;;;;;;;1.58;1.48;;;;;;;33.78;22.79;98326.63;5057137;28;20487;-84
2022/08/11 17:23:58;;;;;;;2.15;1.50;;;;;;;33.16;20.51;98327.91;5069015;28;20420;-84
2022/08/11 17:26:58;;;;;;;1.83;1.73;;;;;;;32.48;22.61;98325.78;5063687;28;20052;-86
2022/08/11 17:29:33;;;;;;;1.77;1.50;;;;;;;31.90;23.36;98321.44;5062257;28;20048;-85
2022/08/11 17:35:46;;;;;;;2.05;1.70;;;;;;;31.13;21.59;98316.28;5080838;28;20060;-85
2022/08/11 17:38:21;;;;;;;1.88;1.58;;;;;;;30.89;25.76;98324.25;5084507;28;20040;-86